Terminal Aerodrome Forecast
Issued by NWS

Home | Current Version | Previous Version | Text Only | Print | Product List | Glossary On
Versions: 1 2 3 4 5 6 7 8 9 10 11 12
000
FTUS44 KLIX 302329
TAFMSY
TAF
KMSY 302329Z 3100/3124 34006KT P6SM VCTS SCT040CB BKN250
     FM310200 34005KT P6SM BKN250
     FM311500 01010KT P6SM VCTS SCT040CB
     FM312300 07005KT P6SM SCT250=

USA.gov is the U.S. government's official web portal to all federal, state and local government web resources and services.